createdAt,value
2023-02-15T03:09:15.497Z,8.30
2023-02-15T03:11:47.548Z,9.40
2023-02-15T03:14:17.545Z,8.60
2023-02-15T03:16:48.208Z,7.80
2023-02-15T03:19:31.738Z,8.35
2023-02-15T03:22:10.621Z,8.48
2023-02-15T03:24:45.583Z,8.05
2023-02-15T03:27:18.519Z,8.35
2023-02-15T03:29:48.072Z,12.05
2023-02-15T03:32:16.716Z,9.15
2023-02-15T03:34:45.131Z,8.35
2023-02-15T03:37:29.503Z,8.55
2023-02-15T03:40:21.286Z,8.32
2023-02-15T03:42:58.701Z,7.75
2023-02-15T03:45:29.039Z,7.70
2023-02-15T03:47:58.028Z,7.07
2023-02-15T03:50:49.978Z,7.60
2023-02-15T03:53:22.075Z,7.82
2023-02-15T03:55:52.276Z,8.27
2023-02-15T03:58:38.465Z,8.32
2023-02-15T04:01:33.938Z,8.63
2023-02-15T04:04:06.795Z,7.75
2023-02-15T04:06:34.598Z,8.82
2023-02-15T04:09:20.632Z,9.38
2023-02-15T04:11:48.633Z,8.50
2023-02-15T04:14:34.637Z,8.20
2023-02-15T04:17:02.388Z,8.65
2023-02-15T04:19:48.421Z,8.18
2023-02-15T04:22:34.743Z,8.50
2023-02-15T04:25:14.373Z,12.48
2023-02-15T04:27:44.756Z,10.00
2023-02-15T04:30:14.128Z,7.50
2023-02-15T04:32:42.197Z,8.48
2023-02-15T04:35:10.561Z,8.90
2023-02-15T04:37:38.942Z,16.52
2023-02-15T04:40:08.172Z,14.98
2023-02-15T04:42:35.788Z,54.22
2023-02-15T04:45:03.855Z,30.00
2023-02-15T04:47:31.756Z,30.20
2023-02-15T04:49:59.395Z,28.52
2023-02-15T04:52:27.074Z,25.05
2023-02-15T04:54:54.874Z,24.92
2023-02-15T04:57:22.630Z,23.20
2023-02-15T04:59:50.319Z,26.95
2023-02-15T05:02:17.911Z,20.13
2023-02-15T05:04:45.737Z,22.05
2023-02-15T05:07:13.426Z,19.98
2023-02-15T05:09:41.124Z,20.17
2023-02-15T05:12:08.945Z,28.73
2023-02-15T05:14:36.711Z,19.02
2023-02-15T05:17:06.423Z,17.80
2023-02-15T05:19:34.129Z,17.98
2023-02-15T05:22:02.001Z,17.48
2023-02-15T05:24:48.083Z,18.10
2023-02-15T05:27:34.286Z,15.00
2023-02-15T05:30:02.742Z,13.85
2023-02-15T05:32:31.214Z,16.27
2023-02-15T05:34:58.901Z,13.70
2023-02-15T05:37:26.709Z,13.43
2023-02-15T05:39:54.759Z,12.38
2023-02-15T05:42:22.390Z,14.52
2023-02-15T05:44:50.276Z,12.57
2023-02-15T05:47:17.917Z,13.15
2023-02-15T05:49:45.793Z,13.10
2023-02-15T05:52:13.589Z,13.80
2023-02-15T05:54:41.361Z,13.20
2023-02-15T05:57:08.976Z,12.82
2023-02-15T05:59:36.781Z,13.05
2023-02-15T06:02:04.454Z,12.20
2023-02-15T06:04:32.237Z,11.93
2023-02-15T06:06:59.864Z,13.50
2023-02-15T06:09:27.677Z,11.93
2023-02-15T06:11:55.357Z,10.63
2023-02-15T06:14:23.265Z,11.23
2023-02-15T06:16:50.949Z,12.50
2023-02-15T06:19:18.746Z,10.80
2023-02-15T06:21:46.649Z,10.50
2023-02-15T06:24:14.378Z,11.23
2023-02-15T06:26:42.526Z,11.25
2023-02-15T06:29:10.202Z,11.48
2023-02-15T06:31:37.995Z,11.60
2023-02-15T06:34:06.061Z,10.38
2023-02-15T06:36:33.925Z,10.25
2023-02-15T06:39:03.258Z,9.68
2023-02-15T06:41:31.102Z,9.65
2023-02-15T06:44:00.180Z,10.73
2023-02-15T06:46:28.082Z,11.32
2023-02-15T06:48:55.779Z,9.85
2023-02-15T06:51:23.681Z,9.80
2023-02-15T06:53:51.530Z,10.00
2023-02-15T06:56:19.288Z,9.82
2023-02-15T06:58:47.414Z,9.75
2023-02-15T07:01:15.067Z,8.57
2023-02-15T07:03:42.983Z,9.32
2023-02-15T07:06:11.823Z,9.98
2023-02-15T07:08:40.394Z,11.43
2023-02-15T07:11:26.999Z,8.68
2023-02-15T07:13:54.918Z,9.40
2023-02-15T07:16:22.655Z,10.55
2023-02-15T07:18:50.365Z,9.93
2023-02-15T07:21:17.986Z,9.20
2023-02-15T07:23:45.756Z,9.93
2023-02-15T07:26:13.344Z,9.93
2023-02-15T07:28:41.650Z,9.75
2023-02-15T07:31:09.365Z,10.05
2023-02-15T07:33:37.187Z,9.50
2023-02-15T07:36:06.005Z,8.63
2023-02-15T07:38:35.924Z,10.02
2023-02-15T07:41:05.922Z,9.60
2023-02-15T07:43:38.549Z,10.90
2023-02-15T07:46:12.631Z,9.63
2023-02-15T07:48:41.624Z,8.50
2023-02-15T07:51:10.929Z,9.02
2023-02-15T07:53:39.343Z,9.65
2023-02-15T07:56:10.312Z,8.55
2023-02-15T07:58:53.684Z,8.25
2023-02-15T08:01:36.759Z,10.30
2023-02-15T08:04:06.764Z,9.50
2023-02-15T08:06:36.340Z,8.55
2023-02-15T08:09:08.640Z,7.40
2023-02-15T08:11:38.150Z,8.18
2023-02-15T08:14:16.216Z,9.45
2023-02-15T08:16:52.128Z,7.90
2023-02-15T08:19:27.656Z,8.65
2023-02-15T08:22:09.091Z,8.98
2023-02-15T08:24:40.809Z,10.07
2023-02-15T08:27:10.183Z,8.48
2023-02-15T08:29:38.940Z,10.13
2023-02-15T08:32:10.336Z,9.18
2023-02-15T08:34:41.964Z,7.85
2023-02-15T08:37:10.589Z,7.95
2023-02-15T08:39:38.277Z,8.18
2023-02-15T08:42:06.211Z,7.88
2023-02-15T08:44:33.798Z,8.70
2023-02-15T08:47:05.079Z,8.07
2023-02-15T08:49:33.123Z,9.48
2023-02-15T08:52:00.934Z,7.68
2023-02-15T08:54:28.849Z,7.00
2023-02-15T08:56:56.534Z,7.25
2023-02-15T08:59:25.233Z,8.30
2023-02-15T09:01:54.838Z,7.38
2023-02-15T09:04:23.763Z,7.75
2023-02-15T09:06:52.249Z,11.02
2023-02-15T09:09:20.718Z,7.50
2023-02-15T09:11:54.597Z,7.32
2023-02-15T09:14:27.801Z,8.77
2023-02-15T09:16:56.516Z,7.28
2023-02-15T09:19:24.921Z,6.68
2023-02-15T09:21:52.967Z,9.20
2023-02-15T09:24:20.721Z,7.30
2023-02-15T09:26:49.919Z,7.30
2023-02-15T09:29:18.632Z,8.15
2023-02-15T09:31:50.289Z,6.80
2023-02-15T09:34:20.854Z,8.57
2023-02-15T09:36:49.206Z,7.03
2023-02-15T09:39:21.313Z,6.70
2023-02-15T09:42:08.057Z,7.57
2023-02-15T09:44:38.591Z,6.72
2023-02-15T09:47:26.418Z,7.15
2023-02-15T09:49:57.305Z,6.85
2023-02-15T09:52:50.273Z,6.43
2023-02-15T09:55:49.032Z,8.00
2023-02-15T09:58:37.867Z,7.70
2023-02-15T10:01:26.710Z,6.60
2023-02-15T10:04:03.858Z,7.13
2023-02-15T10:06:43.078Z,7.35
2023-02-15T10:09:16.877Z,7.30
2023-02-15T10:11:50.343Z,6.80
2023-02-15T10:14:43.078Z,7.15
2023-02-15T10:17:31.770Z,6.45
2023-02-15T10:20:12.179Z,7.13
2023-02-15T10:22:54.949Z,6.47
2023-02-15T10:25:22.821Z,7.60
2023-02-15T10:27:51.384Z,7.60
2023-02-15T10:30:36.385Z,6.93
2023-02-15T10:33:17.591Z,7.05
2023-02-15T10:35:53.974Z,7.82
2023-02-15T10:38:54.112Z,6.95
2023-02-15T10:41:48.147Z,8.35
2023-02-15T10:44:29.146Z,6.75
2023-02-15T10:47:05.912Z,7.35
2023-02-15T10:49:54.960Z,8.38
2023-02-15T10:52:35.698Z,8.32
2023-02-15T10:55:18.649Z,8.10
2023-02-15T10:58:04.864Z,7.82
2023-02-15T11:01:01.293Z,8.23
2023-02-15T11:04:06.925Z,9.80
2023-02-15T11:06:36.434Z,8.75
2023-02-15T11:09:10.782Z,7.93
2023-02-15T11:11:42.140Z,8.35
2023-02-15T11:14:21.833Z,7.68
2023-02-15T11:16:56.194Z,8.60
2023-02-15T11:19:49.831Z,7.40
2023-02-15T11:22:18.138Z,9.13
2023-02-15T11:24:47.262Z,14.18
2023-02-15T11:27:22.284Z,8.10
2023-02-15T11:30:11.447Z,11.18
2023-02-15T11:32:45.734Z,7.50
2023-02-15T11:35:13.542Z,7.90
2023-02-15T11:37:47.288Z,8.07
2023-02-15T11:40:25.773Z,7.40
2023-02-15T11:42:57.353Z,7.13
2023-02-15T11:45:33.153Z,8.07
2023-02-15T11:48:01.694Z,8.43
2023-02-15T11:50:32.351Z,9.27
2023-02-15T11:53:11.003Z,7.72
2023-02-15T11:55:39.009Z,9.48
2023-02-15T11:58:35.118Z,7.70
2023-02-15T12:01:30.191Z,8.43
2023-02-15T12:04:07.866Z,7.93
2023-02-15T12:06:42.798Z,8.55
2023-02-15T12:09:33.415Z,8.75
2023-02-15T12:12:27.600Z,7.53
2023-02-15T12:15:03.103Z,8.63
2023-02-15T12:17:34.907Z,8.55
2023-02-15T12:20:07.776Z,7.88
2023-02-15T12:22:38.112Z,8.60
2023-02-15T12:25:41.747Z,7.93
2023-02-15T12:28:30.825Z,8.73
2023-02-15T12:30:59.944Z,8.73
2023-02-15T12:33:43.007Z,7.55
2023-02-15T12:36:21.215Z,9.27
2023-02-15T12:39:17.512Z,10.60
2023-02-15T12:41:55.265Z,10.65
2023-02-15T12:44:27.789Z,8.30
2023-02-15T12:47:02.643Z,8.98
2023-02-15T12:49:33.134Z,9.45
2023-02-15T12:52:05.211Z,9.38
2023-02-15T12:54:41.735Z,10.73
2023-02-15T12:57:35.871Z,9.55
2023-02-15T13:00:13.079Z,9.25
2023-02-15T13:02:47.941Z,12.35
2023-02-15T13:05:19.905Z,12.60
2023-02-15T13:07:54.703Z,10.48
2023-02-15T13:10:38.101Z,10.77
2023-02-15T13:13:36.381Z,10.10
2023-02-15T13:16:11.122Z,14.32
2023-02-15T13:18:46.758Z,10.68
2023-02-15T13:21:17.785Z,9.88
2023-02-15T13:24:01.178Z,10.95
2023-02-15T13:26:32.433Z,14.07
2023-02-15T13:29:06.376Z,11.23
2023-02-15T13:31:34.487Z,11.00
2023-02-15T13:34:27.269Z,10.27
2023-02-15T13:37:21.233Z,9.43
2023-02-15T13:39:55.442Z,10.43
2023-02-15T13:43:04.295Z,10.93
2023-02-15T13:45:38.591Z,9.65
2023-02-15T13:48:21.649Z,9.70
2023-02-15T13:51:08.347Z,9.85
2023-02-15T13:53:36.482Z,10.23
2023-02-15T13:56:38.093Z,9.95
2023-02-15T13:59:26.484Z,10.23
2023-02-15T14:02:00.261Z,10.45
2023-02-15T14:04:49.827Z,10.60
2023-02-15T14:07:33.239Z,10.10
2023-02-15T14:10:13.999Z,8.75
2023-02-15T14:13:12.076Z,10.52
2023-02-15T14:15:48.047Z,8.82
2023-02-15T14:18:51.149Z,11.60
2023-02-15T14:21:43.003Z,9.20
2023-02-15T14:24:41.930Z,9.57
2023-02-15T14:27:28.103Z,9.25
2023-02-15T14:30:01.481Z,9.95
2023-02-15T14:32:42.693Z,8.82
2023-02-15T14:35:19.045Z,9.73
2023-02-15T14:38:03.975Z,11.23
2023-02-15T14:41:04.811Z,8.30
2023-02-15T14:43:46.347Z,10.13
2023-02-15T14:46:47.800Z,9.75
2023-02-15T14:49:27.968Z,10.18
2023-02-15T14:51:59.146Z,8.35
2023-02-15T14:54:27.092Z,9.27
2023-02-15T14:57:03.916Z,9.15
2023-02-15T14:59:47.819Z,9.75
2023-02-15T15:02:25.679Z,8.45
2023-02-15T15:04:56.358Z,9.13
2023-02-15T15:07:29.784Z,8.43
2023-02-15T15:10:17.050Z,8.95
2023-02-15T15:12:55.723Z,8.10
2023-02-15T15:15:29.797Z,8.90
2023-02-15T15:18:19.471Z,9.57
2023-02-15T15:20:52.081Z,9.27
2023-02-15T15:23:20.085Z,9.57
2023-02-15T15:25:51.116Z,8.82
2023-02-15T15:28:34.340Z,8.40
2023-02-15T15:31:23.966Z,9.55
2023-02-15T15:34:27.122Z,9.63
2023-02-15T15:37:19.868Z,8.35
2023-02-15T15:40:18.457Z,8.98
2023-02-15T15:43:21.132Z,8.88
2023-02-15T15:48:30.305Z,8.73
2023-02-15T15:51:00.951Z,9.75
2023-02-15T15:53:31.086Z,8.55
2023-02-15T15:56:04.330Z,8.98
2023-02-15T15:58:32.929Z,8.50
2023-02-15T16:01:05.584Z,8.85
2023-02-15T16:03:33.351Z,8.48
2023-02-15T16:06:03.613Z,9.27
2023-02-15T16:08:37.480Z,9.55
2023-02-15T16:11:24.850Z,8.52
2023-02-15T16:13:54.095Z,8.68
2023-02-15T16:16:24.376Z,8.18
2023-02-15T16:18:52.932Z,9.75
2023-02-15T16:21:28.686Z,9.25
2023-02-15T16:24:05.384Z,8.25
2023-02-15T16:26:36.041Z,8.23
2023-02-15T16:29:15.669Z,8.38
2023-02-15T16:31:43.763Z,8.38
2023-02-15T16:34:18.806Z,9.15
2023-02-15T16:36:46.606Z,8.48
2023-02-15T16:39:20.389Z,8.85
2023-02-15T16:41:49.560Z,9.45
2023-02-15T16:44:20.800Z,8.65
2023-02-15T16:46:51.343Z,8.82
2023-02-15T16:49:22.641Z,8.05
2023-02-15T16:51:57.893Z,8.80
2023-02-15T16:54:27.149Z,9.23
2023-02-15T16:56:55.038Z,9.38
2023-02-15T16:59:46.241Z,9.35
2023-02-15T17:02:40.183Z,8.70
2023-02-15T17:05:19.543Z,8.93
2023-02-15T17:07:53.346Z,8.88
2023-02-15T17:10:32.508Z,9.10
2023-02-15T17:13:19.174Z,9.38
2023-02-15T17:16:02.613Z,9.77
2023-02-15T17:18:49.064Z,9.60
2023-02-15T17:21:22.195Z,10.02
2023-02-15T17:23:52.145Z,10.07
2023-02-15T17:26:27.168Z,10.50
2023-02-15T17:29:11.670Z,10.90
2023-02-15T17:31:39.581Z,9.25
2023-02-15T17:34:07.538Z,10.73
2023-02-15T17:36:35.318Z,10.65
2023-02-15T17:39:06.900Z,11.43
2023-02-15T17:41:36.121Z,9.35
2023-02-15T17:44:04.765Z,17.52
2023-02-15T17:46:37.600Z,14.57
2023-02-15T17:49:05.734Z,19.05
2023-02-15T17:51:36.111Z,30.75
2023-02-15T17:54:22.868Z,28.25
2023-02-15T17:56:50.572Z,29.00
2023-02-15T17:59:18.200Z,26.17
2023-02-15T18:02:08.705Z,21.45
2023-02-15T18:04:56.013Z,27.23
2023-02-15T18:07:42.288Z,26.30
2023-02-15T18:10:36.687Z,28.63
2023-02-15T18:13:04.768Z,24.55
2023-02-15T18:15:32.626Z,30.33
2023-02-15T18:18:00.513Z,23.52
2023-02-15T18:20:37.286Z,22.13
2023-02-15T18:23:06.317Z,20.00
2023-02-15T18:25:34.701Z,23.98
2023-02-15T18:28:02.388Z,21.67
2023-02-15T18:30:30.148Z,20.63
2023-02-15T18:32:59.740Z,17.33
2023-02-15T18:35:30.910Z,18.48
2023-02-15T18:37:59.777Z,18.23
2023-02-15T18:40:29.242Z,17.23
2023-02-15T18:42:57.663Z,14.45
2023-02-15T18:45:28.812Z,15.90
2023-02-15T18:47:56.593Z,15.17
2023-02-15T18:50:25.383Z,16.60
2023-02-15T18:52:53.373Z,15.40
2023-02-15T18:55:23.404Z,14.55
2023-02-15T18:57:53.296Z,13.90
2023-02-15T19:00:22.606Z,17.25
2023-02-15T19:02:50.375Z,14.25
2023-02-15T19:05:18.347Z,15.52
2023-02-15T19:07:48.792Z,18.25
2023-02-15T19:10:27.749Z,15.65
2023-02-15T19:12:56.116Z,19.23
2023-02-15T19:15:26.546Z,16.65
2023-02-15T19:17:55.099Z,14.80
2023-02-15T19:20:23.938Z,16.65
2023-02-15T19:22:53.294Z,19.55
2023-02-15T19:25:29.671Z,15.80
2023-02-15T19:27:57.880Z,14.45
2023-02-15T19:30:30.889Z,16.27
2023-02-15T19:32:59.487Z,16.70
2023-02-15T19:35:30.649Z,14.85
2023-02-15T19:38:00.391Z,19.23
2023-02-15T19:40:30.414Z,17.73
